createdAt,value
2023-04-18T00:00:16.147Z,84.9058
2023-04-18T00:01:16.630Z,84.9937
2023-04-18T00:02:17.349Z,84.7973
2023-04-18T00:03:18.590Z,84.8714
2023-04-18T00:04:21.079Z,84.9690
2023-04-18T00:05:22.366Z,84.4702
2023-04-18T00:06:22.875Z,84.6640
2023-04-18T00:07:23.382Z,84.1011
2023-04-18T00:08:23.864Z,84.6997
2023-04-18T00:09:24.473Z,84.4977
2023-04-18T00:10:24.948Z,84.0548
2023-04-18T00:11:25.499Z,84.0584
2023-04-18T00:12:26.022Z,84.0380
2023-04-18T00:13:26.488Z,83.9536
2023-04-18T00:14:27.005Z,83.9797
2023-04-18T00:15:27.439Z,83.9048
2023-04-18T00:16:28.155Z,84.0385
2023-04-18T00:17:28.676Z,83.7266
2023-04-18T00:18:29.169Z,84.0861
2023-04-18T00:19:29.642Z,83.8881
2023-04-18T00:20:30.130Z,83.6429
2023-04-18T00:21:30.568Z,83.7953
2023-04-18T00:22:31.037Z,84.2455
2023-04-18T00:23:31.659Z,83.9664
2023-04-18T00:24:32.148Z,84.2689
2023-04-18T00:25:32.696Z,83.7757
2023-04-18T00:26:33.120Z,83.7880
2023-04-18T00:27:33.669Z,84.0599
2023-04-18T00:28:34.209Z,83.9573
2023-04-18T00:29:35.728Z,83.9958
2023-04-18T00:30:36.319Z,83.5457
2023-04-18T00:31:36.824Z,84.0092
2023-04-18T00:32:37.344Z,83.7538
2023-04-18T00:33:37.842Z,83.7095
2023-04-18T00:34:38.332Z,84.2922
2023-04-18T00:35:38.813Z,84.4730
2023-04-18T00:36:39.291Z,84.2719
2023-04-18T00:37:39.746Z,83.7776
2023-04-18T00:38:40.309Z,84.5114
2023-04-18T00:39:40.879Z,83.8545
2023-04-18T00:40:41.443Z,83.8133
2023-04-18T00:41:41.967Z,84.5402
2023-04-18T00:42:42.591Z,83.9528
2023-04-18T00:43:43.280Z,84.1050
2023-04-18T00:44:43.810Z,84.2714
2023-04-18T00:45:44.286Z,83.6219
2023-04-18T00:46:44.803Z,83.9000
2023-04-18T00:47:45.398Z,83.6911
2023-04-18T00:48:45.886Z,83.4706
2023-04-18T00:49:46.373Z,83.8325
2023-04-18T00:50:46.852Z,83.8909
2023-04-18T00:51:47.413Z,84.0043
2023-04-18T00:52:47.940Z,84.3934
2023-04-18T00:53:48.575Z,84.6855
2023-04-18T00:54:49.242Z,84.3736
2023-04-18T00:55:49.744Z,84.2445
2023-04-18T00:56:50.207Z,84.0116
2023-04-18T00:57:50.754Z,84.2596
2023-04-18T00:58:51.196Z,84.1066
2023-04-18T00:59:51.693Z,83.9334
2023-04-18T01:00:52.164Z,83.8231
2023-04-18T01:01:52.741Z,84.0790
2023-04-18T01:02:54.054Z,84.1779
2023-04-18T01:03:55.088Z,84.0876
2023-04-18T01:04:55.805Z,83.8983
2023-04-18T01:05:56.413Z,84.1552
2023-04-18T01:06:56.891Z,84.3767
2023-04-18T01:07:57.340Z,83.8674
2023-04-18T01:08:57.813Z,84.2333
2023-04-18T01:09:58.275Z,83.8441
2023-04-18T01:10:58.705Z,84.7269
2023-04-18T01:11:59.219Z,84.5256
2023-04-18T01:12:59.652Z,83.9886
2023-04-18T01:14:00.113Z,84.0264
2023-04-18T01:15:00.636Z,84.1791
2023-04-18T01:16:01.134Z,84.5559
2023-04-18T01:17:01.587Z,84.2680
2023-04-18T01:18:02.113Z,84.2026
2023-04-18T01:19:02.660Z,83.3022
2023-04-18T01:20:03.209Z,83.6208
2023-04-18T01:21:03.665Z,84.0569
2023-04-18T01:22:04.217Z,83.9817
2023-04-18T01:23:04.652Z,84.6147
2023-04-18T01:24:05.144Z,84.3082
2023-04-18T01:25:05.608Z,84.1683
2023-04-18T01:26:06.025Z,84.3165
2023-04-18T01:27:06.510Z,84.2901
2023-04-18T01:28:06.985Z,84.2035
2023-04-18T01:29:07.438Z,84.0499
2023-04-18T01:30:07.914Z,84.1062
2023-04-18T01:31:08.395Z,84.4379
2023-04-18T01:32:08.850Z,83.8932
2023-04-18T01:33:09.341Z,83.9302
2023-04-18T01:34:09.850Z,84.0226
2023-04-18T01:35:10.324Z,84.1516
2023-04-18T01:36:10.831Z,84.0483
2023-04-18T01:37:11.396Z,83.7742
2023-04-18T01:38:11.881Z,84.1537
2023-04-18T01:39:12.443Z,84.4266
2023-04-18T01:40:12.904Z,84.5780
2023-04-18T01:41:13.426Z,84.4915
2023-04-18T01:42:13.894Z,84.8980
2023-04-18T01:43:14.344Z,84.7744
2023-04-18T01:44:15.299Z,84.1277
2023-04-18T01:45:16.118Z,83.6786
2023-04-18T01:46:16.617Z,84.0192
2023-04-18T01:47:17.083Z,84.3619
2023-04-18T01:48:17.512Z,84.5867
2023-04-18T01:49:18.011Z,84.0129
2023-04-18T01:50:18.556Z,84.1136
2023-04-18T01:51:19.118Z,83.9903
2023-04-18T01:52:19.628Z,83.8223
2023-04-18T01:53:20.059Z,83.9725
2023-04-18T01:54:20.597Z,84.2579
2023-04-18T01:55:21.112Z,83.8894
2023-04-18T01:56:21.768Z,84.1248
2023-04-18T01:57:22.549Z,84.1007
2023-04-18T01:58:23.344Z,84.4397
2023-04-18T01:59:23.829Z,84.6105
2023-04-18T02:00:24.384Z,84.4157
2023-04-18T02:01:25.039Z,84.6884
2023-04-18T02:02:25.849Z,84.4309
2023-04-18T02:03:26.868Z,84.4989
2023-04-18T02:04:27.743Z,83.8611
2023-04-18T02:05:28.278Z,84.0125
2023-04-18T02:06:28.804Z,84.1310
2023-04-18T02:07:29.361Z,84.2921
2023-04-18T02:08:29.862Z,84.2185
2023-04-18T02:09:30.470Z,84.7869
2023-04-18T02:10:30.961Z,85.1578
2023-04-18T02:11:31.560Z,84.4473
2023-04-18T02:12:32.135Z,84.7758
2023-04-18T02:13:32.715Z,85.0946
2023-04-18T02:14:33.245Z,85.2295
2023-04-18T02:15:33.833Z,85.0503
2023-04-18T02:16:34.425Z,85.0651
2023-04-18T02:17:35.100Z,84.5797
2023-04-18T02:18:35.745Z,84.6852
2023-04-18T02:19:36.275Z,84.4614
2023-04-18T02:20:36.806Z,84.3289
2023-04-18T02:21:37.304Z,84.4771
2023-04-18T02:22:37.886Z,84.6068
2023-04-18T02:23:38.403Z,84.7387
2023-04-18T02:24:38.969Z,84.7575
2023-04-18T02:25:39.500Z,85.0139
2023-04-18T02:26:40.073Z,85.0968
2023-04-18T02:27:40.621Z,84.8385
2023-04-18T02:28:41.146Z,84.9574
2023-04-18T02:29:41.679Z,84.9535
2023-04-18T02:30:42.187Z,84.9975
2023-04-18T02:31:42.864Z,85.1134
2023-04-18T02:32:43.426Z,84.9816
2023-04-18T02:33:43.949Z,84.5524
2023-04-18T02:34:44.522Z,85.1704
2023-04-18T02:35:45.094Z,85.3188
2023-04-18T02:36:45.673Z,84.9017
2023-04-18T02:37:46.262Z,85.3551
2023-04-18T02:38:47.076Z,84.9748
2023-04-18T02:39:47.655Z,84.6396
2023-04-18T02:40:48.208Z,84.7864
2023-04-18T02:41:48.789Z,85.3111
2023-04-18T02:42:49.299Z,85.4885
2023-04-18T02:43:49.848Z,85.0750
2023-04-18T02:44:50.344Z,85.0488
2023-04-18T02:45:50.976Z,85.4036
2023-04-18T02:46:51.624Z,85.1937
2023-04-18T02:47:57.011Z,85.1698
2023-04-18T02:48:52.771Z,85.2209
2023-04-18T02:49:53.337Z,85.0543
2023-04-18T02:50:53.927Z,85.5202
2023-04-18T02:51:54.524Z,85.0638
2023-04-18T02:52:55.082Z,85.3615
2023-04-18T02:53:55.636Z,85.7643
2023-04-18T02:54:56.212Z,85.3923
2023-04-18T02:55:56.735Z,85.2238
2023-04-18T02:56:57.423Z,85.4489
2023-04-18T02:57:57.949Z,85.0192
2023-04-18T02:58:58.495Z,85.0430
2023-04-18T02:59:59.035Z,84.9225
2023-04-18T03:00:59.688Z,85.2264
2023-04-18T03:02:00.333Z,84.9771
2023-04-18T03:03:00.967Z,85.2481
2023-04-18T03:04:01.462Z,85.4197
2023-04-18T03:05:02.020Z,84.9072
2023-04-18T03:06:02.565Z,84.8032
2023-04-18T03:07:03.154Z,85.0708
2023-04-18T03:08:03.831Z,85.4590
2023-04-18T03:09:04.636Z,85.0487
2023-04-18T03:10:05.205Z,85.2431
2023-04-18T03:11:05.682Z,85.4761
2023-04-18T03:12:06.401Z,84.8958
2023-04-18T03:13:06.907Z,85.1104
2023-04-18T03:14:07.422Z,84.7761
2023-04-18T03:15:08.014Z,84.6724
2023-04-18T03:16:08.706Z,84.9939
2023-04-18T03:17:09.219Z,85.1449
2023-04-18T03:18:09.774Z,85.5158
2023-04-18T03:19:10.351Z,85.6757
2023-04-18T03:20:10.875Z,85.1759
2023-04-18T03:21:11.467Z,85.3230
2023-04-18T03:22:12.022Z,85.0971
2023-04-18T03:23:12.561Z,84.8243
2023-04-18T03:24:14.353Z,84.9891
2023-04-18T03:25:15.142Z,85.0968
2023-04-18T03:26:15.676Z,84.9405
2023-04-18T03:27:16.216Z,85.3416
2023-04-18T03:28:16.785Z,85.5480
2023-04-18T03:29:17.380Z,85.2983
2023-04-18T03:30:17.889Z,85.2605
2023-04-18T03:31:18.583Z,85.5935
2023-04-18T03:32:19.320Z,85.3053
2023-04-18T03:33:19.973Z,85.0237
2023-04-18T03:34:20.471Z,85.2625
2023-04-18T03:35:20.992Z,85.2478
2023-04-18T03:36:21.548Z,85.4754
2023-04-18T03:37:22.123Z,85.7144
2023-04-18T03:38:22.896Z,85.5329
2023-04-18T03:39:23.440Z,85.0344
2023-04-18T03:40:24.012Z,84.8713
2023-04-18T03:41:24.537Z,85.0179
2023-04-18T03:42:25.192Z,85.2202
2023-04-18T03:43:25.724Z,85.2963
2023-04-18T03:44:26.306Z,85.4136
2023-04-18T03:45:26.832Z,85.5938
2023-04-18T03:46:27.398Z,84.8298
2023-04-18T03:47:27.940Z,84.8034
2023-04-18T03:48:28.461Z,84.9391
2023-04-18T03:49:28.983Z,85.1141
2023-04-18T03:50:29.568Z,85.1209
2023-04-18T03:51:30.117Z,84.8040
2023-04-18T03:52:30.713Z,85.5200
2023-04-18T03:53:31.221Z,85.4936
2023-04-18T03:54:31.721Z,84.9683
2023-04-18T03:55:32.280Z,84.8505
2023-04-18T03:56:32.818Z,85.3957
2023-04-18T03:57:33.440Z,85.1782
2023-04-18T03:58:33.971Z,84.6926
2023-04-18T03:59:34.512Z,85.0625
2023-04-18T04:00:35.068Z,84.8103
2023-04-18T04:01:35.695Z,84.9509
2023-04-18T04:02:36.703Z,84.6647
2023-04-18T04:03:37.781Z,85.3535
2023-04-18T04:04:38.638Z,85.1806
2023-04-18T04:05:39.174Z,84.8001
2023-04-18T04:06:39.756Z,84.6540
2023-04-18T04:07:40.385Z,85.0965
2023-04-18T04:08:40.901Z,84.8658
2023-04-18T04:09:41.485Z,84.4678
2023-04-18T04:10:41.992Z,84.6611
2023-04-18T04:11:42.585Z,84.7713
2023-04-18T04:12:43.140Z,84.6784
2023-04-18T04:13:43.711Z,84.9572
2023-04-18T04:14:44.332Z,85.0515
2023-04-18T04:15:44.960Z,84.9189
2023-04-18T04:16:45.607Z,84.9715
2023-04-18T04:17:46.483Z,84.6696
2023-04-18T04:18:47.032Z,85.1251
2023-04-18T04:19:47.574Z,84.8613
2023-04-18T04:20:48.281Z,84.6739
2023-04-18T04:21:48.831Z,84.5375
2023-04-18T04:22:49.395Z,84.7663
2023-04-18T04:23:50.079Z,84.7495
2023-04-18T04:24:50.689Z,84.6486
2023-04-18T04:25:51.274Z,84.7153
2023-04-18T04:26:51.917Z,84.4071
2023-04-18T04:27:52.481Z,85.2804
2023-04-18T04:28:53.079Z,84.8659
2023-04-18T04:29:53.594Z,84.9328
2023-04-18T04:30:54.154Z,85.0469
2023-04-18T04:31:54.802Z,84.9245
2023-04-18T04:32:55.470Z,84.7429
2023-04-18T04:33:56.083Z,85.0027
2023-04-18T04:34:56.690Z,84.7979
2023-04-18T04:35:57.323Z,84.7304
2023-04-18T04:36:57.880Z,85.0379
2023-04-18T04:37:58.475Z,85.3606
2023-04-18T04:38:59.020Z,85.3205
2023-04-18T04:39:59.588Z,85.0308
2023-04-18T04:41:00.111Z,84.8749
2023-04-18T04:42:01.081Z,84.8678
2023-04-18T04:43:01.676Z,84.7124
2023-04-18T04:44:02.287Z,84.6567
2023-04-18T04:45:02.895Z,84.4475
2023-04-18T04:46:03.491Z,84.8513
2023-04-18T04:47:04.149Z,85.0276
2023-04-18T04:48:04.766Z,84.5894
2023-04-18T04:49:05.298Z,85.1687
2023-04-18T04:50:05.853Z,85.3560
2023-04-18T04:51:06.428Z,85.5997
2023-04-18T04:52:06.943Z,85.0712
2023-04-18T04:53:07.555Z,84.9320
2023-04-18T04:54:08.084Z,84.9719
2023-04-18T04:55:08.670Z,85.0733
2023-04-18T04:56:09.438Z,84.9519
2023-04-18T04:57:10.060Z,84.5136
2023-04-18T04:58:10.578Z,84.8026
2023-04-18T04:59:11.096Z,85.5066
2023-04-18T05:00:11.614Z,85.1584
2023-04-18T05:01:12.246Z,85.4449
2023-04-18T05:02:13.012Z,85.1418
2023-04-18T05:03:14.072Z,85.3322
2023-04-18T05:04:16.079Z,85.4879
2023-04-18T05:05:17.093Z,85.3148
2023-04-18T05:06:17.693Z,85.1834
2023-04-18T05:07:18.284Z,85.4959
2023-04-18T05:08:18.904Z,84.9550
2023-04-18T05:09:19.511Z,84.8148
2023-04-18T05:10:20.069Z,84.8490
2023-04-18T05:11:20.722Z,85.1546
2023-04-18T05:12:21.234Z,84.8842
2023-04-18T05:13:21.822Z,84.9004
2023-04-18T05:14:22.412Z,85.3647
2023-04-18T05:15:23.055Z,85.1732
2023-04-18T05:16:23.788Z,85.6649
2023-04-18T05:17:24.392Z,85.2136
2023-04-18T05:18:25.047Z,85.3139
2023-04-18T05:19:25.627Z,84.8784
2023-04-18T05:20:26.395Z,84.8913
2023-04-18T05:21:26.929Z,84.8040
2023-04-18T05:22:27.540Z,85.0867
2023-04-18T05:23:28.128Z,85.5169
2023-04-18T05:24:28.719Z,85.3105
2023-04-18T05:25:29.296Z,85.3508
2023-04-18T05:26:29.826Z,84.9593
2023-04-18T05:27:30.386Z,84.4794
2023-04-18T05:28:31.061Z,84.9066
2023-04-18T05:29:31.641Z,85.1054
2023-04-18T05:30:32.334Z,85.1049
2023-04-18T05:31:32.964Z,85.1541
2023-04-18T05:32:33.538Z,84.8629
2023-04-18T05:33:34.064Z,85.1976
2023-04-18T05:34:38.940Z,84.8745
2023-04-18T05:35:35.027Z,84.6118
2023-04-18T05:36:35.620Z,85.0227
2023-04-18T05:37:36.259Z,84.5992
2023-04-18T05:38:36.895Z,84.9133
2023-04-18T05:39:37.483Z,84.9975
2023-04-18T05:40:38.162Z,85.0535
2023-04-18T05:41:38.702Z,84.5740
2023-04-18T05:42:39.318Z,84.5498
2023-04-18T05:43:40.180Z,84.6540
2023-04-18T05:44:41.572Z,84.9638
2023-04-18T05:45:42.150Z,84.6437
2023-04-18T05:46:42.939Z,84.8701
2023-04-18T05:47:43.540Z,84.9025
2023-04-18T05:48:44.211Z,84.9459
2023-04-18T05:49:44.805Z,84.7759
2023-04-18T05:50:45.443Z,84.5662
2023-04-18T05:51:46.078Z,84.6311
2023-04-18T05:52:46.623Z,85.0216
2023-04-18T05:53:47.211Z,84.9793
2023-04-18T05:54:47.783Z,84.6666
2023-04-18T05:55:48.344Z,84.6461
2023-04-18T05:56:49.085Z,84.8913
2023-04-18T05:57:49.923Z,84.5029
2023-04-18T05:58:50.540Z,84.9420
2023-04-18T05:59:51.115Z,84.7848
2023-04-18T06:00:51.684Z,84.4212
2023-04-18T06:01:52.451Z,84.4519
2023-04-18T06:02:53.689Z,84.3941
2023-04-18T06:03:54.999Z,84.7601
2023-04-18T06:04:56.382Z,84.7031
2023-04-18T06:05:57.453Z,84.5254
2023-04-18T06:06:58.388Z,84.4080
2023-04-18T06:07:58.984Z,84.7120
2023-04-18T06:08:59.614Z,84.6941
2023-04-18T06:10:00.120Z,84.3403
2023-04-18T06:11:00.647Z,84.5051
2023-04-18T06:12:01.195Z,84.2573
2023-04-18T06:13:01.772Z,84.5333
2023-04-18T06:14:02.480Z,84.4180
2023-04-18T06:15:03.107Z,84.4514
2023-04-18T06:16:03.782Z,84.7654
2023-04-18T06:17:04.326Z,84.2764
2023-04-18T06:18:05.061Z,83.9184
2023-04-18T06:19:05.650Z,84.1760
2023-04-18T06:20:06.216Z,84.0556
2023-04-18T06:21:06.769Z,84.1716
2023-04-18T06:22:07.297Z,84.1950
2023-04-18T06:23:07.838Z,83.8970
2023-04-18T06:24:08.402Z,83.5135
2023-04-18T06:25:08.996Z,83.7537
2023-04-18T06:26:09.525Z,84.2481
2023-04-18T06:27:30.231Z,83.8126
2023-04-18T06:28:10.546Z,83.9503
2023-04-18T06:29:11.175Z,83.7173
2023-04-18T06:30:11.732Z,83.9881
2023-04-18T06:31:12.549Z,84.3644
2023-04-18T06:32:13.080Z,84.1495
2023-04-18T06:33:13.655Z,83.7074
2023-04-18T06:34:14.832Z,83.5752
2023-04-18T06:35:15.630Z,83.7147
2023-04-18T06:36:16.174Z,83.8747
2023-04-18T06:37:16.704Z,83.6136
2023-04-18T06:38:17.306Z,83.7487
2023-04-18T06:39:17.925Z,83.8332
2023-04-18T06:40:18.521Z,83.7863
2023-04-18T06:41:19.067Z,83.8372
2023-04-18T06:42:22.927Z,83.7920
2023-04-18T06:43:21.228Z,83.6227
2023-04-18T06:44:21.792Z,83.6876
2023-04-18T06:45:22.343Z,84.2255
2023-04-18T06:46:23.383Z,84.1201
2023-04-18T06:47:23.978Z,84.0173
2023-04-18T06:48:24.507Z,83.9010
2023-04-18T06:49:26.992Z,83.4871
2023-04-18T06:50:25.172Z,83.3143
2023-04-18T06:51:25.722Z,83.3551
2023-04-18T06:52:26.235Z,83.7880
2023-04-18T06:53:26.754Z,83.7761
2023-04-18T06:54:27.409Z,83.9447
2023-04-18T06:55:27.981Z,83.4904
2023-04-18T06:56:28.497Z,83.2957
2023-04-18T06:57:29.010Z,83.2013
2023-04-18T06:58:29.566Z,83.4617
2023-04-18T06:59:30.451Z,83.4225
2023-04-18T07:00:30.980Z,83.5663
2023-04-18T07:01:31.695Z,83.3231
2023-04-18T07:02:32.666Z,83.4027
2023-04-18T07:03:34.416Z,83.7153
2023-04-18T07:04:35.102Z,83.8765
2023-04-18T07:05:35.713Z,84.0471
2023-04-18T07:06:36.350Z,83.5517
2023-04-18T07:07:36.914Z,83.3920
2023-04-18T07:08:37.632Z,83.3166
2023-04-18T07:09:38.266Z,83.0410
2023-04-18T07:10:38.829Z,83.2778
2023-04-18T07:11:39.408Z,83.1736
2023-04-18T07:12:41.015Z,83.0818
2023-04-18T07:13:41.621Z,83.4769
2023-04-18T07:14:42.245Z,83.1874
2023-04-18T07:15:42.786Z,82.9808
2023-04-18T07:16:43.464Z,82.7466
2023-04-18T07:17:44.036Z,82.8940
2023-04-18T07:18:44.635Z,82.8016
2023-04-18T07:19:45.250Z,82.8005
2023-04-18T07:20:45.816Z,82.6914
2023-04-18T07:21:46.536Z,82.6476
2023-04-18T07:22:47.133Z,82.7623
2023-04-18T07:23:47.729Z,82.6054
2023-04-18T07:24:48.352Z,82.2171
2023-04-18T07:25:48.952Z,82.2090
2023-04-18T07:26:49.490Z,81.9959
2023-04-18T07:27:50.058Z,82.0271
2023-04-18T07:28:50.641Z,81.9393
2023-04-18T07:29:51.238Z,82.2138
2023-04-18T07:30:51.882Z,82.2196
2023-04-18T07:31:52.453Z,82.4281
2023-04-18T07:32:53.183Z,82.2049
2023-04-18T07:33:53.704Z,81.9925
2023-04-18T07:34:54.302Z,81.6582
2023-04-18T07:35:54.847Z,81.3628
2023-04-18T07:36:55.424Z,81.4633
2023-04-18T07:37:56.001Z,81.4207
2023-04-18T07:38:56.557Z,81.5614
2023-04-18T07:39:57.102Z,81.5473
2023-04-18T07:40:57.677Z,81.7220
2023-04-18T07:41:58.208Z,81.7494
2023-04-18T07:42:58.768Z,81.6477
2023-04-18T07:43:59.376Z,81.8606
2023-04-18T07:44:59.983Z,81.6484
2023-04-18T07:46:00.608Z,82.3697
2023-04-18T07:47:01.122Z,82.0629
2023-04-18T07:48:01.813Z,82.2738
2023-04-18T07:49:02.537Z,81.5183
2023-04-18T07:50:03.085Z,81.2480
2023-04-18T07:51:03.567Z,81.3662
2023-04-18T07:52:04.151Z,81.1962
2023-04-18T07:53:04.677Z,80.6520
2023-04-18T07:54:05.222Z,80.7385
2023-04-18T07:55:05.837Z,80.9974
2023-04-18T07:56:06.398Z,80.3304
2023-04-18T07:57:06.975Z,79.9633
2023-04-18T07:58:07.492Z,79.9790
2023-04-18T07:59:08.090Z,79.6401
2023-04-18T08:00:08.644Z,79.6386
2023-04-18T08:01:09.235Z,79.6215
2023-04-18T08:02:09.860Z,79.7362
2023-04-18T08:03:10.663Z,79.3918
2023-04-18T08:04:12.027Z,79.8605
2023-04-18T08:05:12.930Z,78.9245
2023-04-18T08:06:13.454Z,78.5854
2023-04-18T08:07:13.979Z,78.6889
2023-04-18T08:08:14.536Z,79.1468
2023-04-18T08:09:16.021Z,78.3683
2023-04-18T08:10:16.809Z,78.5868
2023-04-18T08:11:17.367Z,78.3595
2023-04-18T08:12:17.891Z,78.7156
2023-04-18T08:13:18.417Z,78.5390
2023-04-18T08:14:19.025Z,78.9061
2023-04-18T08:15:19.508Z,77.9158
2023-04-18T08:16:20.091Z,78.5782
2023-04-18T08:17:20.707Z,77.7735
2023-04-18T08:18:21.251Z,76.9416
2023-04-18T08:19:21.753Z,76.7073
2023-04-18T08:20:22.366Z,76.8024
2023-04-18T08:21:23.046Z,76.6058
2023-04-18T08:22:23.551Z,76.2447
2023-04-18T08:23:24.040Z,76.5416
2023-04-18T08:24:24.543Z,76.2545
2023-04-18T08:25:25.074Z,76.4576
2023-04-18T08:26:25.582Z,77.1790
2023-04-18T08:27:26.116Z,77.0382
2023-04-18T08:28:26.591Z,77.3206
2023-04-18T08:29:27.126Z,77.4740
2023-04-18T08:30:27.676Z,77.4797
2023-04-18T08:31:28.314Z,77.9607
2023-04-18T08:32:28.963Z,78.3164
2023-04-18T08:33:29.456Z,78.8179
2023-04-18T08:34:30.056Z,78.7775
2023-04-18T08:35:30.692Z,78.6200
2023-04-18T08:36:31.276Z,78.6394
2023-04-18T08:37:31.806Z,78.6603
2023-04-18T08:38:32.335Z,78.6370
2023-04-18T08:39:32.890Z,78.8534
2023-04-18T08:40:33.477Z,78.8774
2023-04-18T08:41:34.007Z,78.6860
2023-04-18T08:42:34.536Z,78.6325
2023-04-18T08:43:35.029Z,78.4949
2023-04-18T08:44:35.535Z,78.5241
2023-04-18T08:45:36.343Z,77.9745
2023-04-18T08:46:36.833Z,77.9030
2023-04-18T08:47:37.480Z,77.6989
2023-04-18T08:48:38.062Z,77.9610
2023-04-18T08:49:38.576Z,78.2737
2023-04-18T08:50:39.160Z,78.1204
2023-04-18T08:51:39.695Z,78.1295
2023-04-18T08:52:40.253Z,77.7506
2023-04-18T08:53:40.805Z,77.3869
2023-04-18T08:54:41.295Z,77.0969
2023-04-18T08:55:41.836Z,76.6502
2023-04-18T08:56:42.356Z,76.7639
2023-04-18T08:57:42.886Z,76.5435
2023-04-18T08:58:43.441Z,76.6726
2023-04-18T08:59:47.180Z,76.9861
2023-04-18T09:00:44.985Z,77.0479
2023-04-18T09:01:45.613Z,77.0959
2023-04-18T09:02:46.293Z,77.4009
2023-04-18T09:03:46.902Z,77.1145
2023-04-18T09:04:47.477Z,76.7043
2023-04-18T09:05:48.028Z,76.7207
2023-04-18T09:06:48.540Z,76.4552
2023-04-18T09:07:49.080Z,76.4800
2023-04-18T09:08:49.626Z,76.2394
2023-04-18T09:09:50.212Z,75.9224
2023-04-18T09:10:50.814Z,75.6022
2023-04-18T09:11:51.359Z,74.8991
2023-04-18T09:12:51.854Z,74.8988
2023-04-18T09:13:52.412Z,74.6780
2023-04-18T09:14:52.968Z,74.3600
2023-04-18T09:15:53.533Z,74.4887
2023-04-18T09:16:54.292Z,74.2709
2023-04-18T09:17:54.831Z,74.5190
2023-04-18T09:18:55.326Z,74.6838
2023-04-18T09:19:55.843Z,75.1215
2023-04-18T09:20:56.409Z,76.0253
2023-04-18T09:21:56.945Z,76.6006
2023-04-18T09:22:57.534Z,76.7072
2023-04-18T09:23:58.044Z,76.4013
2023-04-18T09:24:58.600Z,76.5844
2023-04-18T09:25:59.154Z,76.5070
2023-04-18T09:26:59.677Z,76.3336
2023-04-18T09:28:00.298Z,76.0062
2023-04-18T09:29:00.891Z,75.8956
2023-04-18T09:30:01.420Z,75.5082
2023-04-18T09:31:02.192Z,75.3126
2023-04-18T09:32:02.723Z,75.5575
2023-04-18T09:33:04.227Z,75.2045
2023-04-18T09:34:04.765Z,74.9413
2023-04-18T09:35:05.536Z,74.3634
2023-04-18T09:36:07.137Z,74.5116
2023-04-18T09:37:07.806Z,74.6770
2023-04-18T09:38:08.396Z,74.6589
2023-04-18T09:39:08.959Z,74.9003
2023-04-18T09:40:09.658Z,75.2266
2023-04-18T09:41:10.284Z,75.3032
2023-04-18T09:42:10.856Z,75.5044
2023-04-18T09:43:11.343Z,75.2139
2023-04-18T09:44:15.824Z,75.2158
2023-04-18T09:45:14.209Z,74.3922
2023-04-18T09:46:14.841Z,74.4333
2023-04-18T09:47:16.343Z,74.1373
2023-04-18T09:48:16.813Z,73.8574
2023-04-18T09:49:18.657Z,73.9951
2023-04-18T09:50:19.336Z,74.7367
2023-04-18T09:51:19.936Z,75.3845
2023-04-18T09:52:20.453Z,75.5757
2023-04-18T09:53:21.645Z,75.3055
2023-04-18T09:54:22.177Z,75.3335
2023-04-18T09:55:22.898Z,75.3641
2023-04-18T09:56:23.680Z,75.6575
2023-04-18T09:57:24.274Z,75.4545
2023-04-18T09:58:24.771Z,75.2112
2023-04-18T09:59:25.356Z,75.0623
2023-04-18T10:00:25.899Z,74.4378
2023-04-18T10:01:26.574Z,73.5508
2023-04-18T10:02:27.409Z,73.4256
2023-04-18T10:03:28.182Z,73.4455
2023-04-18T10:04:28.884Z,73.0615
2023-04-18T10:05:29.537Z,72.6035
2023-04-18T10:06:30.118Z,72.4674
2023-04-18T10:07:30.613Z,72.3761
2023-04-18T10:08:31.173Z,72.0938
2023-04-18T10:09:31.736Z,71.1611
2023-04-18T10:10:32.412Z,71.3679
2023-04-18T10:11:32.942Z,71.6367
2023-04-18T10:12:33.445Z,71.7372
2023-04-18T10:13:33.963Z,71.9706
2023-04-18T10:14:34.482Z,72.0236
2023-04-18T10:15:35.096Z,72.3731
2023-04-18T10:16:36.860Z,71.7104
2023-04-18T10:17:37.433Z,70.4879
2023-04-18T10:18:38.205Z,70.8230
2023-04-18T10:19:38.751Z,71.2505
2023-04-18T10:20:39.228Z,71.4936
2023-04-18T10:21:39.789Z,71.4677
2023-04-18T10:22:40.264Z,71.8786
2023-04-18T10:23:40.904Z,70.3810
2023-04-18T10:24:41.412Z,69.4418
2023-04-18T10:25:43.421Z,69.2571
2023-04-18T10:27:19.174Z,69.2363
2023-04-18T10:28:20.123Z,69.4462
2023-04-18T10:29:21.043Z,69.1415
2023-04-18T10:30:22.180Z,70.1766
2023-04-18T10:31:23.326Z,71.1436
2023-04-18T10:32:24.403Z,71.9987
2023-04-18T10:33:32.388Z,71.7954
2023-04-18T10:34:27.169Z,72.3032
2023-04-18T10:35:28.185Z,72.7979
2023-04-18T10:36:29.205Z,73.1311
2023-04-18T10:37:30.185Z,72.9922
2023-04-18T10:38:31.270Z,73.3792
2023-04-18T10:39:32.215Z,73.3000
2023-04-18T10:40:33.237Z,73.0553
2023-04-18T10:41:34.169Z,72.7866
2023-04-18T10:42:35.156Z,72.3470
2023-04-18T10:43:36.172Z,72.0686
2023-04-18T10:44:37.136Z,72.2490
2023-04-18T10:45:38.120Z,72.1014
2023-04-18T10:46:39.179Z,71.5289
2023-04-18T10:47:40.636Z,71.3438
2023-04-18T10:48:41.654Z,71.4500
2023-04-18T10:49:42.620Z,71.4501
2023-04-18T10:50:43.576Z,70.9649
2023-04-18T10:51:44.530Z,70.7106
2023-04-18T10:52:45.467Z,70.7731
2023-04-18T10:53:46.418Z,70.5276
2023-04-18T10:54:47.291Z,71.5455
2023-04-18T10:55:48.208Z,71.5281
2023-04-18T10:56:49.130Z,71.4556
2023-04-18T10:57:50.096Z,71.6081
2023-04-18T10:58:51.091Z,71.6634
2023-04-18T10:59:52.100Z,71.4865
2023-04-18T11:00:53.169Z,70.5504
2023-04-18T11:01:54.096Z,70.5331
2023-04-18T11:02:55.424Z,69.6085
2023-04-18T11:03:56.688Z,69.4748
2023-04-18T11:04:57.646Z,70.2002
2023-04-18T11:05:59.016Z,69.5935
2023-04-18T11:07:00.086Z,69.6217
2023-04-18T11:08:01.252Z,69.6032
2023-04-18T11:09:02.625Z,69.4917
2023-04-18T11:10:03.554Z,70.4024
2023-04-18T11:11:04.492Z,70.8251
2023-04-18T11:12:05.432Z,70.8771
2023-04-18T11:13:06.376Z,70.6304
2023-04-18T11:14:07.541Z,70.6693
2023-04-18T11:15:08.543Z,71.0428
2023-04-18T11:16:09.459Z,70.9291
2023-04-18T11:17:10.384Z,70.2302
2023-04-18T11:18:11.350Z,69.6957
2023-04-18T11:19:12.224Z,69.2881
2023-04-18T11:20:13.203Z,69.3519
2023-04-18T11:21:14.110Z,68.7527
2023-04-18T11:22:14.998Z,68.8923
2023-04-18T11:23:15.938Z,68.7838
2023-04-18T11:24:16.887Z,69.5136
2023-04-18T11:25:17.827Z,69.4074
2023-04-18T11:26:18.697Z,69.2227
2023-04-18T11:27:19.604Z,69.7570
2023-04-18T11:28:20.498Z,70.2520
2023-04-18T11:29:21.399Z,70.6312
2023-04-18T11:30:22.316Z,70.4489
2023-04-18T11:31:23.327Z,70.3233
2023-04-18T11:32:24.580Z,70.2623
2023-04-18T11:33:25.519Z,69.9079
2023-04-18T11:34:26.479Z,69.8175
2023-04-18T11:35:27.420Z,69.7990
2023-04-18T11:36:28.349Z,70.0474
2023-04-18T11:37:29.263Z,69.8888
2023-04-18T11:38:30.176Z,69.1541
2023-04-18T11:39:31.096Z,68.8925
2023-04-18T11:40:32.035Z,69.2480
2023-04-18T11:41:32.919Z,69.8889
2023-04-18T11:42:33.817Z,69.9760
2023-04-18T11:43:34.749Z,67.3161
2023-04-18T11:44:36.798Z,66.4812
2023-04-18T11:45:37.815Z,66.8693
2023-04-18T11:46:38.938Z,66.9170
2023-04-18T11:47:39.909Z,66.5766
2023-04-18T11:48:40.788Z,66.0219
2023-04-18T11:49:41.660Z,61.6964
2023-04-18T11:50:42.526Z,60.9982
2023-04-18T11:51:43.359Z,61.3193
2023-04-18T11:52:44.211Z,61.0546
2023-04-18T11:53:45.089Z,61.4427
2023-04-18T11:54:45.897Z,61.5201
2023-04-18T11:55:46.745Z,58.7688
2023-04-18T11:56:47.535Z,57.9227
2023-04-18T11:57:48.375Z,57.7779
2023-04-18T11:58:49.278Z,59.9076
2023-04-18T11:59:50.128Z,57.6320
2023-04-18T12:00:50.970Z,61.4198
2023-04-18T12:01:53.638Z,63.4220
2023-04-18T12:02:52.550Z,63.9069
2023-04-18T12:03:54.047Z,64.2516
2023-04-18T12:04:56.414Z,63.9693
2023-04-18T12:05:55.706Z,63.0729
2023-04-18T12:06:56.760Z,61.7508
2023-04-18T12:07:57.614Z,61.9743
2023-04-18T12:08:58.461Z,60.8160
2023-04-18T12:09:59.253Z,60.5664
2023-04-18T12:11:00.125Z,56.5749
2023-04-18T12:12:00.980Z,58.8312
2023-04-18T12:13:01.755Z,60.6289
2023-04-18T12:14:04.507Z,61.1146